createdAt,value
2022-11-03T00:02:35.454Z,15.26
2022-11-03T00:05:57.551Z,15.23
2022-11-03T00:09:05.828Z,15.11
2022-11-03T00:12:11.991Z,15.06
2022-11-03T00:15:16.555Z,14.99
2022-11-03T00:18:22.795Z,14.85
2022-11-03T00:21:27.349Z,14.75
2022-11-03T00:24:33.484Z,14.61
2022-11-03T00:27:37.950Z,14.51
2022-11-03T00:30:44.198Z,14.37
2022-11-03T00:33:49.044Z,14.26
2022-11-03T00:36:55.270Z,14.15
2022-11-03T00:39:59.923Z,14.10
2022-11-03T00:43:06.500Z,14.04
2022-11-03T00:46:13.452Z,13.97
2022-11-03T00:49:19.500Z,13.88
2022-11-03T00:52:25.677Z,13.82
2022-11-03T00:55:30.141Z,13.76
2022-11-03T00:58:36.600Z,13.72
2022-11-03T01:01:47.162Z,13.74
2022-11-03T01:05:11.252Z,13.75
2022-11-03T01:08:17.396Z,13.74
2022-11-03T01:11:40.272Z,13.74
2022-11-03T01:14:48.457Z,13.71
2022-11-03T01:17:54.532Z,13.69
2022-11-03T01:21:00.977Z,13.66
2022-11-03T01:24:07.796Z,13.63
2022-11-03T01:27:15.821Z,13.60
2022-11-03T01:30:21.935Z,13.57
2022-11-03T01:33:28.009Z,13.56
2022-11-03T01:36:34.239Z,13.56
2022-11-03T01:39:38.743Z,13.54
2022-11-03T01:42:44.879Z,13.54
2022-11-03T01:45:54.527Z,13.57
2022-11-03T01:49:04.208Z,13.54
2022-11-03T01:52:15.258Z,13.50
2022-11-03T01:55:24.698Z,13.45
2022-11-03T01:58:34.844Z,13.40
2022-11-03T02:01:41.317Z,13.34
2022-11-03T02:04:48.451Z,13.27
2022-11-03T02:08:00.209Z,13.19
2022-11-03T02:11:27.047Z,13.10
2022-11-03T02:14:33.173Z,13.02
2022-11-03T02:17:41.212Z,12.96
2022-11-03T02:20:50.158Z,12.88
2022-11-03T02:24:04.219Z,12.80
2022-11-03T02:27:10.688Z,12.72
2022-11-03T02:30:16.885Z,12.65
2022-11-03T02:33:32.006Z,12.57
2022-11-03T02:36:43.494Z,12.49
2022-11-03T02:39:54.062Z,12.44
2022-11-03T02:43:02.473Z,12.38
2022-11-03T02:46:09.754Z,12.32
2022-11-03T02:49:15.801Z,12.28
2022-11-03T02:52:40.840Z,12.22
2022-11-03T02:55:55.396Z,12.16
2022-11-03T02:59:06.298Z,12.09
2022-11-03T03:02:29.077Z,12.05
2022-11-03T03:05:37.813Z,12.00
2022-11-03T03:08:49.653Z,11.96
2022-11-03T03:11:57.756Z,11.90
2022-11-03T03:15:07.318Z,11.84
2022-11-03T03:18:22.063Z,11.75
2022-11-03T03:21:33.949Z,11.69
2022-11-03T03:24:49.273Z,11.65
2022-11-03T03:28:02.275Z,11.60
2022-11-03T03:31:14.691Z,11.54
2022-11-03T03:34:34.562Z,11.47
2022-11-03T03:37:46.769Z,11.41
2022-11-03T03:40:56.947Z,11.34
2022-11-03T03:44:07.498Z,11.29
2022-11-03T03:47:19.294Z,11.24
2022-11-03T03:50:27.916Z,11.20
2022-11-03T03:53:34.159Z,11.13
2022-11-03T03:56:48.778Z,11.04
2022-11-03T03:59:55.006Z,10.94
2022-11-03T04:03:01.393Z,10.86
2022-11-03T04:06:05.898Z,10.79
2022-11-03T04:09:12.136Z,10.72
2022-11-03T04:12:35.841Z,10.69
2022-11-03T04:15:59.407Z,10.64
2022-11-03T04:19:23.084Z,10.58
2022-11-03T04:22:31.912Z,10.49
2022-11-03T04:25:38.065Z,10.41
2022-11-03T04:28:44.850Z,10.33
2022-11-03T04:31:51.062Z,10.28
2022-11-03T04:34:57.296Z,10.23
2022-11-03T04:38:10.822Z,10.17
2022-11-03T04:41:19.513Z,10.14
2022-11-03T04:44:25.778Z,10.11
2022-11-03T04:47:33.215Z,10.09
2022-11-03T04:50:42.867Z,10.07
2022-11-03T04:53:56.436Z,10.02
2022-11-03T04:57:06.357Z,9.99
2022-11-03T05:00:18.366Z,9.95
2022-11-03T05:03:26.802Z,9.91
2022-11-03T05:06:32.889Z,9.87
2022-11-03T05:09:42.719Z,9.84
2022-11-03T05:12:50.349Z,9.80
2022-11-03T05:16:01.775Z,9.77
2022-11-03T05:19:14.279Z,9.74
2022-11-03T05:22:23.625Z,9.66
2022-11-03T05:25:43.618Z,9.56
2022-11-03T05:28:52.054Z,9.45
2022-11-03T05:31:59.033Z,9.41
2022-11-03T05:35:05.586Z,9.40
2022-11-03T05:38:17.255Z,9.41
2022-11-03T05:41:27.316Z,9.40
2022-11-03T05:44:37.110Z,9.40
2022-11-03T05:47:43.753Z,9.39
2022-11-03T05:50:49.897Z,9.35
2022-11-03T05:53:59.380Z,9.31
2022-11-03T05:57:09.803Z,9.27
2022-11-03T06:00:29.235Z,9.26
2022-11-03T06:03:38.905Z,9.24
2022-11-03T06:06:48.369Z,9.23
2022-11-03T06:09:55.174Z,9.23
2022-11-03T06:13:07.526Z,9.22
2022-11-03T06:16:33.498Z,9.21
2022-11-03T06:19:41.624Z,9.18
2022-11-03T06:22:48.664Z,9.16
2022-11-03T06:25:56.905Z,9.16
2022-11-03T06:29:03.154Z,9.16
2022-11-03T06:32:13.982Z,9.16
2022-11-03T06:35:21.215Z,9.17
2022-11-03T06:38:30.872Z,9.17
2022-11-03T06:41:39.991Z,9.18
2022-11-03T06:44:48.798Z,9.20
2022-11-03T06:47:55.691Z,9.20
2022-11-03T06:51:02.243Z,9.20
2022-11-03T06:54:12.946Z,9.23
2022-11-03T06:57:20.190Z,9.24
2022-11-03T07:00:37.762Z,9.26
2022-11-03T07:03:46.696Z,9.28
2022-11-03T07:06:53.842Z,9.30
2022-11-03T07:10:00.130Z,9.34
2022-11-03T07:13:15.015Z,9.37
2022-11-03T07:16:25.788Z,9.42
2022-11-03T07:19:36.142Z,9.46
2022-11-03T07:22:42.222Z,9.52
2022-11-03T07:25:51.140Z,9.57
2022-11-03T07:28:58.125Z,9.63
2022-11-03T07:32:11.566Z,9.69
2022-11-03T07:35:46.907Z,9.75
2022-11-03T07:39:01.280Z,9.83
2022-11-03T07:42:16.753Z,9.91
2022-11-03T07:45:41.176Z,9.99
2022-11-03T07:48:49.402Z,10.04
2022-11-03T07:51:56.647Z,10.09
2022-11-03T07:55:02.781Z,10.16
2022-11-03T07:58:22.501Z,10.22
2022-11-03T08:01:34.200Z,10.29
2022-11-03T08:04:40.620Z,10.36
2022-11-03T08:07:46.999Z,10.42
2022-11-03T08:10:51.462Z,10.50
2022-11-03T08:13:58.017Z,10.55
2022-11-03T08:17:04.161Z,10.65
2022-11-03T08:20:11.713Z,10.74
2022-11-03T08:23:25.707Z,10.83
2022-11-03T08:26:32.914Z,10.93
2022-11-03T08:29:39.146Z,11.02
2022-11-03T08:32:45.511Z,11.13
2022-11-03T08:35:49.964Z,11.22
2022-11-03T08:38:56.111Z,11.29
2022-11-03T08:42:02.364Z,11.42
2022-11-03T08:45:07.836Z,11.53
2022-11-03T08:48:14.204Z,11.62
2022-11-03T08:51:18.745Z,11.76
2022-11-03T08:54:25.098Z,11.85
2022-11-03T08:57:29.561Z,12.00
2022-11-03T09:00:40.742Z,12.11
2022-11-03T09:03:47.509Z,12.26
2022-11-03T09:06:52.112Z,12.41
2022-11-03T09:13:24.299Z,12.66
2022-11-03T09:16:30.492Z,12.78
2022-11-03T09:19:36.609Z,12.89
2022-11-03T09:22:42.762Z,13.04
2022-11-03T09:25:48.837Z,13.18
2022-11-03T09:28:54.971Z,13.33
2022-11-03T09:32:01.079Z,13.48
2022-11-03T09:35:09.091Z,13.60
2022-11-03T09:38:15.230Z,13.74
2022-11-03T09:41:27.688Z,13.85
2022-11-03T09:44:50.602Z,13.96
2022-11-03T09:47:57.554Z,14.09
2022-11-03T09:51:03.998Z,13.91
2022-11-03T09:54:13.325Z,13.55
2022-11-03T09:57:20.113Z,13.75
2022-11-03T10:00:27.495Z,14.03
2022-11-03T10:03:33.965Z,14.24
2022-11-03T10:06:40.293Z,14.02
2022-11-03T10:09:49.967Z,13.60
2022-11-03T10:12:56.514Z,13.74
2022-11-03T10:16:05.334Z,14.13
2022-11-03T10:19:15.305Z,14.35
2022-11-03T10:22:22.450Z,14.03
2022-11-03T10:25:40.163Z,13.67
2022-11-03T10:29:00.802Z,13.51
2022-11-03T10:32:27.090Z,13.61
2022-11-03T10:35:37.441Z,14.09
2022-11-03T10:38:44.436Z,14.46
2022-11-03T10:41:59.413Z,14.70
2022-11-03T10:45:18.227Z,14.43
2022-11-03T10:48:26.446Z,14.13
2022-11-03T10:51:32.738Z,13.96
2022-11-03T10:54:39.682Z,13.98
2022-11-03T10:57:50.539Z,14.54
2022-11-03T11:00:59.260Z,14.99
2022-11-03T11:04:05.863Z,14.85
2022-11-03T11:07:25.089Z,14.63
2022-11-03T11:10:32.717Z,14.48
2022-11-03T11:13:38.764Z,14.43
2022-11-03T11:16:56.002Z,14.41
2022-11-03T11:20:35.688Z,14.42
2022-11-03T11:23:49.597Z,14.65
2022-11-03T11:26:55.868Z,15.30
2022-11-03T11:30:02.256Z,15.75
2022-11-03T11:33:23.691Z,15.67
2022-11-03T11:36:29.918Z,15.42
2022-11-03T11:39:49.462Z,15.30
2022-11-03T11:43:28.903Z,15.20
2022-11-03T11:46:42.515Z,15.14
2022-11-03T11:49:48.722Z,15.12
2022-11-03T11:52:59.825Z,15.11
2022-11-03T11:56:06.607Z,15.12
2022-11-03T11:59:24.616Z,15.14
2022-11-03T12:02:32.792Z,15.16
2022-11-03T12:05:39.145Z,15.20
2022-11-03T12:08:46.246Z,15.21
2022-11-03T12:11:55.613Z,15.23
2022-11-03T12:15:02.735Z,15.26
2022-11-03T12:18:36.424Z,15.28
2022-11-03T12:21:55.850Z,15.32
2022-11-03T12:25:04.238Z,15.37
2022-11-03T12:28:10.609Z,15.39
2022-11-03T12:31:16.788Z,15.41
2022-11-03T12:34:21.242Z,15.45
2022-11-03T12:37:27.458Z,15.45
2022-11-03T12:40:33.531Z,15.45
2022-11-03T12:43:37.995Z,15.43
2022-11-03T12:46:44.110Z,15.44
2022-11-03T12:49:48.665Z,15.45
2022-11-03T12:52:54.803Z,15.47
2022-11-03T12:55:59.304Z,15.49
2022-11-03T12:59:05.419Z,15.52
2022-11-03T13:02:11.397Z,15.54
2022-11-03T13:05:17.909Z,15.57
2022-11-03T13:08:24.739Z,15.57
2022-11-03T13:11:48.607Z,15.60
2022-11-03T13:15:12.589Z,15.62
2022-11-03T13:18:19.168Z,15.63
2022-11-03T13:21:25.196Z,15.61
2022-11-03T13:24:29.749Z,15.61
2022-11-03T13:27:35.980Z,15.58
2022-11-03T13:30:42.079Z,15.54
2022-11-03T13:33:46.628Z,15.50
2022-11-03T13:36:52.742Z,15.47
2022-11-03T13:39:57.208Z,15.44
2022-11-03T13:43:03.398Z,15.42
2022-11-03T13:46:09.699Z,15.38
2022-11-03T13:49:59.471Z,15.34
2022-11-03T13:52:42.344Z,15.30
2022-11-03T13:55:48.809Z,15.27
2022-11-03T14:05:47.778Z,15.18
2022-11-03T14:08:54.123Z,15.15
2022-11-03T14:12:18.189Z,15.09
2022-11-03T14:15:24.347Z,15.04
2022-11-03T14:18:30.477Z,14.96
2022-11-03T14:21:37.945Z,14.90
2022-11-03T14:24:44.552Z,14.84
2022-11-03T14:27:50.865Z,14.77
2022-11-03T14:30:59.987Z,14.69
2022-11-03T14:34:06.254Z,14.61
2022-11-03T14:37:13.488Z,14.51
2022-11-03T14:40:33.631Z,14.41
2022-11-03T14:43:39.880Z,14.29
2022-11-03T14:46:45.887Z,14.18
2022-11-03T14:49:52.549Z,14.07
2022-11-03T14:52:59.975Z,13.95
2022-11-03T14:56:06.608Z,13.83
2022-11-03T14:59:12.729Z,13.70
2022-11-03T15:02:17.402Z,13.56
2022-11-03T15:05:46.701Z,13.42
2022-11-03T15:08:56.358Z,13.26
2022-11-03T15:12:02.897Z,13.11
2022-11-03T15:15:09.083Z,12.96
2022-11-03T15:18:15.326Z,12.82
2022-11-03T15:21:21.411Z,12.68
2022-11-03T15:27:53.706Z,13.15
2022-11-03T15:30:58.141Z,13.54
2022-11-03T15:34:07.676Z,13.77
2022-11-03T15:37:15.758Z,13.96
2022-11-03T15:40:21.809Z,14.09
2022-11-03T15:43:27.854Z,14.07
2022-11-03T15:46:35.876Z,13.58
2022-11-03T15:49:42.070Z,13.10
2022-11-03T15:52:48.113Z,12.75
2022-11-03T15:55:54.267Z,12.46
2022-11-03T15:58:58.762Z,12.32
2022-11-03T16:02:20.151Z,12.64
2022-11-03T16:05:30.990Z,13.01
2022-11-03T16:08:35.546Z,13.21
2022-11-03T16:11:41.755Z,13.32
2022-11-03T16:14:46.260Z,13.45
2022-11-03T16:17:52.353Z,13.51
2022-11-03T16:20:58.365Z,13.59
2022-11-03T16:24:04.524Z,13.50
2022-11-03T16:27:09.839Z,12.96
2022-11-03T16:30:16.799Z,12.40
2022-11-03T16:33:23.013Z,11.96
2022-11-03T16:36:27.641Z,11.71
2022-11-03T16:39:34.101Z,11.94
2022-11-03T16:42:40.134Z,12.21
2022-11-03T16:45:46.214Z,12.39
2022-11-03T16:48:52.287Z,12.45
2022-11-03T16:51:58.787Z,12.45
2022-11-03T16:55:05.373Z,12.47
2022-11-03T16:58:11.468Z,12.50
2022-11-03T17:01:17.604Z,12.49
2022-11-03T17:04:24.270Z,12.48
2022-11-03T17:07:30.438Z,12.47
2022-11-03T17:10:35.869Z,12.32
2022-11-03T17:13:42.231Z,11.70
2022-11-03T17:16:47.336Z,11.13
2022-11-03T17:19:53.401Z,10.68
2022-11-03T17:22:59.526Z,10.45
2022-11-03T17:26:06.473Z,10.74
2022-11-03T17:29:16.624Z,11.02
2022-11-03T17:32:26.706Z,11.17
2022-11-03T17:35:39.509Z,11.27
2022-11-03T17:38:46.049Z,11.35
2022-11-03T17:41:52.208Z,11.41
2022-11-03T17:44:59.499Z,11.41
2022-11-03T17:48:06.234Z,11.40
2022-11-03T17:51:13.834Z,11.42
2022-11-03T17:54:20.171Z,11.43
2022-11-03T17:57:24.809Z,11.46
2022-11-03T18:00:31.270Z,11.46
2022-11-03T18:03:37.894Z,11.50
2022-11-03T18:06:45.646Z,11.51
2022-11-03T18:09:51.806Z,11.49
2022-11-03T18:13:19.888Z,11.48
2022-11-03T18:16:26.256Z,11.46
2022-11-03T18:19:33.446Z,11.42
2022-11-03T18:22:39.635Z,11.38
2022-11-03T18:25:46.196Z,11.36
2022-11-03T18:28:53.116Z,11.35
2022-11-03T18:32:01.186Z,11.33
2022-11-03T18:35:15.527Z,11.29
2022-11-03T18:38:23.353Z,11.26
2022-11-03T18:41:39.732Z,11.22
2022-11-03T18:44:46.821Z,11.20
2022-11-03T18:47:54.237Z,11.19
2022-11-03T18:51:00.336Z,11.18
2022-11-03T18:54:07.162Z,11.17
2022-11-03T18:57:14.553Z,11.17
2022-11-03T19:00:23.589Z,11.17
2022-11-03T19:03:30.490Z,11.18
2022-11-03T19:06:37.593Z,11.17
2022-11-03T19:09:44.982Z,11.18
2022-11-03T19:12:51.202Z,11.19
2022-11-03T19:15:58.209Z,11.16
2022-11-03T19:19:04.234Z,11.11
2022-11-03T19:22:14.398Z,11.07
2022-11-03T19:25:20.681Z,11.03
2022-11-03T19:28:25.860Z,11.01
2022-11-03T19:31:35.777Z,11.01
2022-11-03T19:34:43.414Z,11.08
2022-11-03T19:37:51.165Z,11.12
2022-11-03T19:41:15.041Z,11.15
2022-11-03T19:44:21.101Z,11.15
2022-11-03T19:48:10.504Z,11.14
2022-11-03T19:51:15.579Z,11.10
2022-11-03T19:54:24.856Z,11.10
2022-11-03T19:57:31.100Z,11.10
2022-11-03T20:00:37.102Z,11.09
2022-11-03T20:03:43.347Z,11.13
2022-11-03T20:06:49.825Z,11.16
2022-11-03T20:09:56.120Z,11.17
2022-11-03T20:13:00.917Z,11.13
2022-11-03T20:16:11.833Z,11.05
2022-11-03T20:19:17.920Z,11.00
2022-11-03T20:22:29.024Z,10.96
2022-11-03T20:25:37.246Z,10.95
2022-11-03T20:28:43.741Z,10.96
2022-11-03T20:31:49.952Z,10.99
2022-11-03T20:34:56.841Z,11.03
2022-11-03T20:38:03.133Z,11.09
2022-11-03T20:41:16.435Z,11.13
2022-11-03T20:44:23.965Z,11.18
2022-11-03T20:47:32.784Z,11.18
2022-11-03T20:50:39.516Z,11.18
2022-11-03T20:53:46.341Z,11.18
2022-11-03T20:56:52.421Z,11.18
2022-11-03T20:59:58.577Z,11.14
2022-11-03T21:03:21.078Z,11.11
2022-11-03T21:06:37.625Z,11.15
2022-11-03T21:09:44.220Z,11.18
2022-11-03T21:12:50.994Z,11.20
2022-11-03T21:16:24.133Z,11.25
2022-11-03T21:19:55.841Z,11.31
2022-11-03T21:23:01.974Z,11.38
2022-11-03T21:26:10.529Z,11.44
2022-11-03T21:29:27.513Z,11.51
2022-11-03T21:32:39.303Z,11.58
2022-11-03T21:35:46.826Z,11.65
2022-11-03T21:38:52.960Z,11.72
2022-11-03T21:42:17.789Z,11.78
2022-11-03T21:45:24.163Z,11.80
2022-11-03T21:48:46.194Z,11.77
2022-11-03T21:51:52.325Z,11.74
2022-11-03T21:54:58.634Z,11.78
2022-11-03T21:58:04.498Z,11.83
2022-11-03T22:01:11.244Z,11.85
2022-11-03T22:04:17.394Z,11.92
2022-11-03T22:07:24.046Z,11.99
2022-11-03T22:10:30.209Z,12.03
2022-11-03T22:13:36.298Z,12.03
2022-11-03T22:16:42.804Z,12.04
2022-11-03T22:20:06.777Z,12.04
2022-11-03T22:23:32.781Z,12.06
2022-11-03T22:27:00.069Z,12.09
2022-11-03T22:30:25.581Z,12.11
2022-11-03T22:33:51.816Z,12.10
2022-11-03T22:36:57.881Z,12.11
2022-11-03T22:40:21.758Z,12.16
2022-11-03T22:43:46.147Z,12.22
2022-11-03T22:46:52.173Z,12.25
2022-11-03T22:49:58.229Z,12.30
2022-11-03T22:53:24.403Z,12.34
2022-11-03T22:56:31.529Z,12.34
2022-11-03T22:59:37.597Z,12.32
2022-11-03T23:02:44.324Z,12.31
2022-11-03T23:05:50.491Z,12.31
2022-11-03T23:08:57.727Z,12.34
2022-11-03T23:12:03.929Z,12.36
2022-11-03T23:15:29.364Z,12.40
2022-11-03T23:18:53.035Z,12.42
2022-11-03T23:21:59.510Z,12.44
2022-11-03T23:25:05.993Z,12.43
2022-11-03T23:28:12.105Z,12.41
2022-11-03T23:31:18.508Z,12.36
2022-11-03T23:34:24.880Z,12.33
2022-11-03T23:37:29.506Z,12.33
2022-11-03T23:40:36.305Z,12.30
2022-11-03T23:43:43.133Z,12.32
2022-11-03T23:47:06.636Z,12.34
2022-11-03T23:50:13.025Z,12.36
2022-11-03T23:53:17.541Z,12.38
2022-11-03T23:56:42.945Z,12.36
2022-11-03T23:59:49.163Z,12.38
